sensor_id;sensor_type;location;lat;lon;timestamp;pressure;altitude;pressure_sealevel;temperature;humidity
9695;BME280;4690;52.422;13.486;2023-10-08T00:12:52;101551.66;;;13.90;95.32
9695;BME280;4690;52.422;13.486;2023-10-08T00:15:18;101550.19;;;13.87;95.25
9695;BME280;4690;52.422;13.486;2023-10-08T00:17:44;101530.69;;;13.89;95.49
9695;BME280;4690;52.422;13.486;2023-10-08T00:20:11;101523.91;;;13.92;95.42
9695;BME280;4690;52.422;13.486;2023-10-08T00:22:44;101533.66;;;13.87;95.13
9695;BME280;4690;52.422;13.486;2023-10-08T00:25:13;101528.41;;;13.86;95.56
9695;BME280;4690;52.422;13.486;2023-10-08T00:27:38;101529.47;;;13.85;95.68
9695;BME280;4690;52.422;13.486;2023-10-08T00:30:05;101540.88;;;13.88;95.41
9695;BME280;4690;52.422;13.486;2023-10-08T00:32:39;101544.47;;;13.89;95.49
9695;BME280;4690;52.422;13.486;2023-10-08T00:35:05;101540.88;;;13.88;95.41
9695;BME280;4690;52.422;13.486;2023-10-08T00:37:31;101543.56;;;13.95;95.19
9695;BME280;4690;52.422;13.486;2023-10-08T00:39:56;101542.94;;;13.93;94.96
9695;BME280;4690;52.422;13.486;2023-10-08T00:42:22;101553.59;;;13.89;95.10
9695;BME280;4690;52.422;13.486;2023-10-08T00:44:50;101558.88;;;13.91;95.26
9695;BME280;4690;52.422;13.486;2023-10-08T00:47:19;101566.06;;;13.92;95.37
9695;BME280;4690;52.422;13.486;2023-10-08T00:49:51;101559.72;;;13.92;95.32
9695;BME280;4690;52.422;13.486;2023-10-08T00:52:29;101569.66;;;13.93;95.45
9695;BME280;4690;52.422;13.486;2023-10-08T00:54:56;101566.91;;;13.93;95.52
9695;BME280;4690;52.422;13.486;2023-10-08T00:57:35;101564.53;;;13.96;95.36
9695;BME280;4690;52.422;13.486;2023-10-08T01:00:05;101570.03;;;13.96;95.19
9695;BME280;4690;52.422;13.486;2023-10-08T01:02:37;101576.41;;;13.97;95.39
9695;BME280;4690;52.422;13.486;2023-10-08T01:05:17;101582.34;;;13.94;95.25
9695;BME280;4690;52.422;13.486;2023-10-08T01:07:53;101578.53;;;13.95;95.48
9695;BME280;4690;52.422;13.486;2023-10-08T01:10:21;101581.50;;;13.93;95.12
9695;BME280;4690;52.422;13.486;2023-10-08T01:12:50;101580.06;;;13.90;95.15
9695;BME280;4690;52.422;13.486;2023-10-08T01:15:36;101582.22;;;13.88;95.32
9695;BME280;4690;52.422;13.486;2023-10-08T01:18:03;101577.28;;;13.90;95.32
9695;BME280;4690;52.422;13.486;2023-10-08T01:20:30;101577.38;;;13.84;95.39
9695;BME280;4690;52.422;13.486;2023-10-08T01:23:10;101590.53;;;13.82;95.81
9695;BME280;4690;52.422;13.486;2023-10-08T01:25:46;101588.19;;;13.85;95.83
9695;BME280;4690;52.422;13.486;2023-10-08T01:28:23;101594.75;;;13.84;95.04
9695;BME280;4690;52.422;13.486;2023-10-08T01:30:55;101601.97;;;13.85;95.45
9695;BME280;4690;52.422;13.486;2023-10-08T01:33:23;101599.41;;;13.84;95.73
9695;BME280;4690;52.422;13.486;2023-10-08T01:35:54;101608.31;;;13.86;95.53
9695;BME280;4690;52.422;13.486;2023-10-08T01:38:20;101610.44;;;13.84;95.65
9695;BME280;4690;52.422;13.486;2023-10-08T01:40:52;101607.47;;;13.85;95.58
9695;BME280;4690;52.422;13.486;2023-10-08T01:43:18;101620.16;;;13.86;95.54
9695;BME280;4690;52.422;13.486;2023-10-08T01:45:44;101609.16;;;13.86;95.45
9695;BME280;4690;52.422;13.486;2023-10-08T01:48:15;101618.50;;;13.85;95.07
9695;BME280;4690;52.422;13.486;2023-10-08T01:50:48;101628.06;;;13.83;95.03
9695;BME280;4690;52.422;13.486;2023-10-08T01:53:15;101620.84;;;13.82;95.11
9695;BME280;4690;52.422;13.486;2023-10-08T01:55:42;101623.59;;;13.82;95.37
9695;BME280;4690;52.422;13.486;2023-10-08T01:58:20;101622.75;;;13.81;95.38
9695;BME280;4690;52.422;13.486;2023-10-08T02:00:49;101645.25;;;13.78;95.38
9695;BME280;4690;52.422;13.486;2023-10-08T02:03:16;101638.91;;;13.78;95.07
9695;BME280;4690;52.422;13.486;2023-10-08T02:05:46;101637.44;;;13.75;94.60
9695;BME280;4690;52.422;13.486;2023-10-08T02:08:14;101642.56;;;13.72;95.21
9695;BME280;4690;52.422;13.486;2023-10-08T02:10:43;101654.44;;;13.72;94.69
9695;BME280;4690;52.422;13.486;2023-10-08T02:13:13;101655.47;;;13.71;94.70
9695;BME280;4690;52.422;13.486;2023-10-08T02:15:49;101657.47;;;13.64;95.00
9695;BME280;4690;52.422;13.486;2023-10-08T02:18:19;101646.19;;;13.65;94.61
9695;BME280;4690;52.422;13.486;2023-10-08T02:20:45;101643.91;;;13.62;94.63
9695;BME280;4690;52.422;13.486;2023-10-08T02:23:12;101654.53;;;13.59;94.53
9695;BME280;4690;52.422;13.486;2023-10-08T02:25:39;101667.47;;;13.58;94.47
9695;BME280;4690;52.422;13.486;2023-10-08T02:28:08;101672.78;;;13.53;94.55
9695;BME280;4690;52.422;13.486;2023-10-08T02:30:42;101677.22;;;13.54;94.77
9695;BME280;4690;52.422;13.486;2023-10-08T02:33:09;101677.63;;;13.58;94.90
9695;BME280;4690;52.422;13.486;2023-10-08T02:35:45;101698.84;;;13.57;94.75
9695;BME280;4690;52.422;13.486;2023-10-08T02:38:14;101709.16;;;13.62;94.65
9695;BME280;4690;52.422;13.486;2023-10-08T02:40:44;101717.25;;;13.57;94.98
9695;BME280;4690;52.422;13.486;2023-10-08T02:43:14;101717.44;;;13.62;94.79
9695;BME280;4690;52.422;13.486;2023-10-08T02:45:41;101697.53;;;13.60;94.94
9695;BME280;4690;52.422;13.486;2023-10-08T02:48:08;101701.34;;;13.59;95.11
9695;BME280;4690;52.422;13.486;2023-10-08T02:50:43;101716.59;;;13.61;95.06
9695;BME280;4690;52.422;13.486;2023-10-08T02:53:11;101710.25;;;13.61;94.94
9695;BME280;4690;52.422;13.486;2023-10-08T02:55:41;101710.69;;;13.58;95.00
9695;BME280;4690;52.422;13.486;2023-10-08T02:58:10;101716.19;;;13.58;95.28
9695;BME280;4690;52.422;13.486;2023-10-08T03:00:45;101703.25;;;13.58;95.28
9695;BME280;4690;52.422;13.486;2023-10-08T03:03:13;101704.94;;;13.59;95.22
9695;BME280;4690;52.422;13.486;2023-10-08T03:08:14;101721.00;;;13.62;95.32
9695;BME280;4690;52.422;13.486;2023-10-08T03:10:46;101702.81;;;13.61;95.23
9695;BME280;4690;52.422;13.486;2023-10-08T03:13:17;101719.34;;;13.61;95.25
9695;BME280;4690;52.422;13.486;2023-10-08T03:15:45;101704.50;;;13.62;95.06
9695;BME280;4690;52.422;13.486;2023-10-08T03:18:29;101701.75;;;13.62;94.93
9695;BME280;4690;52.422;13.486;2023-10-08T03:21:06;101707.69;;;13.59;95.07
9695;BME280;4690;52.422;13.486;2023-10-08T03:23:59;101705.78;;;13.60;94.76
9695;BME280;4690;52.422;13.486;2023-10-08T03:26:24;101713.00;;;13.61;95.32
9695;BME280;4690;52.422;13.486;2023-10-08T03:28:56;101732.47;;;13.59;95.05
9695;BME280;4690;52.422;13.486;2023-10-08T03:31:25;101722.94;;;13.62;95.21
9695;BME280;4690;52.422;13.486;2023-10-08T03:34:17;101715.75;;;13.61;95.37
9695;BME280;4690;52.422;13.486;2023-10-08T03:36:46;101723.78;;;13.62;95.40
9695;BME280;4690;52.422;13.486;2023-10-08T03:39:14;101739.00;;;13.65;95.35
9695;BME280;4690;52.422;13.486;2023-10-08T03:41:41;101764.63;;;13.65;95.18
9695;BME280;4690;52.422;13.486;2023-10-08T03:44:08;101758.09;;;13.66;95.09
9695;BME280;4690;52.422;13.486;2023-10-08T03:46:40;101761.88;;;13.65;94.97
9695;BME280;4690;52.422;13.486;2023-10-08T03:49:12;101757.25;;;13.66;94.97
9695;BME280;4690;52.422;13.486;2023-10-08T03:51:57;101769.31;;;13.65;95.09
9695;BME280;4690;52.422;13.486;2023-10-08T03:54:23;101793.91;;;13.66;95.01
9695;BME280;4690;52.422;13.486;2023-10-08T03:56:56;101795.19;;;13.64;95.02
9695;BME280;4690;52.422;13.486;2023-10-08T03:59:22;101793.50;;;13.63;95.04
9695;BME280;4690;52.422;13.486;2023-10-08T04:02:02;101806.41;;;13.62;95.34
9695;BME280;4690;52.422;13.486;2023-10-08T04:04:44;101807.28;;;13.63;95.02
9695;BME280;4690;52.422;13.486;2023-10-08T04:07:25;101800.44;;;13.65;95.23
9695;BME280;4690;52.422;13.486;2023-10-08T04:10:04;101814.00;;;13.67;95.26
9695;BME280;4690;52.422;13.486;2023-10-08T04:12:50;101827.38;;;13.63;95.22
9695;BME280;4690;52.422;13.486;2023-10-08T04:15:20;101812.78;;;13.63;95.23
9695;BME280;4690;52.422;13.486;2023-10-08T04:17:46;101811.91;;;13.62;95.17
9695;BME280;4690;52.422;13.486;2023-10-08T04:20:17;101798.38;;;13.61;95.22
9695;BME280;4690;52.422;13.486;2023-10-08T04:23:18;101826.94;;;13.66;94.98
9695;BME280;4690;52.422;13.486;2023-10-08T04:25:47;101836.69;;;13.62;95.07
9695;BME280;4690;52.422;13.486;2023-10-08T04:28:20;101841.59;;;13.60;95.20
9695;BME280;4690;52.422;13.486;2023-10-08T04:30:47;101838.84;;;13.60;94.85
9695;BME280;4690;52.422;13.486;2023-10-08T04:33:14;101849.88;;;13.60;94.46
9695;BME280;4690;52.422;13.486;2023-10-08T04:35:44;101854.13;;;13.56;94.72
9695;BME280;4690;52.422;13.486;2023-10-08T04:38:27;101875.75;;;13.53;94.76
9695;BME280;4690;52.422;13.486;2023-10-08T04:41:03;101885.91;;;13.52;95.00
9695;BME280;4690;52.422;13.486;2023-10-08T04:43:34;101888.44;;;13.54;95.16
9695;BME280;4690;52.422;13.486;2023-10-08T04:46:04;101872.75;;;13.54;94.87
9695;BME280;4690;52.422;13.486;2023-10-08T04:48:46;101870.88;;;13.55;94.73
9695;BME280;4690;52.422;13.486;2023-10-08T04:51:12;101874.91;;;13.52;94.89
9695;BME280;4690;52.422;13.486;2023-10-08T04:53:39;101877.03;;;13.50;94.85
9695;BME280;4690;52.422;13.486;2023-10-08T04:56:12;101875.34;;;13.49;94.83
9695;BME280;4690;52.422;13.486;2023-10-08T04:58:47;101875.56;;;13.48;94.96
9695;BME280;4690;52.422;13.486;2023-10-08T05:01:18;101871.72;;;13.49;95.17
9695;BME280;4690;52.422;13.486;2023-10-08T05:03:48;101871.97;;;13.47;95.02
9695;BME280;4690;52.422;13.486;2023-10-08T05:06:37;101879.81;;;13.43;94.75
9695;BME280;4690;52.422;13.486;2023-10-08T05:09:07;101889.13;;;13.42;95.11
9695;BME280;4690;52.422;13.486;2023-10-08T05:11:39;101902.28;;;13.40;94.58
9695;BME280;4690;52.422;13.486;2023-10-08T05:14:25;101916.69;;;13.36;94.76
9695;BME280;4690;52.422;13.486;2023-10-08T05:17:06;101927.69;;;13.36;94.60
9695;BME280;4690;52.422;13.486;2023-10-08T05:19:40;101930.69;;;13.28;94.42
9695;BME280;4690;52.422;13.486;2023-10-08T05:22:08;101923.03;;;13.23;94.34
9695;BME280;4690;52.422;13.486;2023-10-08T05:25:03;101923.06;;;13.16;94.32
9695;BME280;4690;52.422;13.486;2023-10-08T05:27:45;101936.19;;;13.14;94.07
9695;BME280;4690;52.422;13.486;2023-10-08T05:30:25;101935.56;;;13.12;94.13
9695;BME280;4690;52.422;13.486;2023-10-08T05:33:05;101951.88;;;13.07;93.91
9695;BME280;4690;52.422;13.486;2023-10-08T05:35:45;101957.16;;;13.02;94.18
9695;BME280;4690;52.422;13.486;2023-10-08T05:38:13;101948.69;;;12.97;94.06
9695;BME280;4690;52.422;13.486;2023-10-08T05:40:51;101965.63;;;12.94;94.30
9695;BME280;4690;52.422;13.486;2023-10-08T05:43:28;101965.00;;;12.92;94.13
9695;BME280;4690;52.422;13.486;2023-10-08T05:46:13;101973.47;;;12.90;94.17
9695;BME280;4690;52.422;13.486;2023-10-08T05:48:56;101981.94;;;12.89;94.38
9695;BME280;4690;52.422;13.486;2023-10-08T05:51:32;101977.06;;;12.91;93.92
9695;BME280;4690;52.422;13.486;2023-10-08T05:54:20;101981.94;;;12.89;94.21
9695;BME280;4690;52.422;13.486;2023-10-08T05:59:45;101969.22;;;12.94;94.36
9695;BME280;4690;52.422;13.486;2023-10-08T06:02:27;101987.03;;;12.98;94.54
9695;BME280;4690;52.422;13.486;2023-10-08T06:04:54;102002.28;;;13.01;94.75
9695;BME280;4690;52.422;13.486;2023-10-08T06:07:52;102004.78;;;13.02;94.58
9695;BME280;4690;52.422;13.486;2023-10-08T06:10:37;102021.09;;;13.11;94.95
9695;BME280;4690;52.422;13.486;2023-10-08T06:13:05;102034.66;;;13.26;94.83
9695;BME280;4690;52.422;13.486;2023-10-08T06:15:51;102043.13;;;13.37;94.45
9695;BME280;4690;52.422;13.486;2023-10-08T06:18:29;102043.97;;;13.38;94.36
9695;BME280;4690;52.422;13.486;2023-10-08T06:20:59;102050.97;;;13.40;94.19
9695;BME280;4690;52.422;13.486;2023-10-08T06:23:29;102061.56;;;13.43;94.02
9695;BME280;4690;52.422;13.486;2023-10-08T06:26:01;102086.94;;;13.45;94.54
9695;BME280;4690;52.422;13.486;2023-10-08T06:28:38;102083.56;;;13.50;94.24
9695;BME280;4690;52.422;13.486;2023-10-08T06:31:05;102077.84;;;13.58;94.36
9695;BME280;4690;52.422;13.486;2023-10-08T06:33:40;102071.69;;;13.63;94.43
9695;BME280;4690;52.422;13.486;2023-10-08T06:36:07;102071.44;;;13.71;94.76
9695;BME280;4690;52.422;13.486;2023-10-08T06:38:41;102087.34;;;13.76;94.87
9695;BME280;4690;52.422;13.486;2023-10-08T06:41:11;102087.31;;;13.82;94.50
9695;BME280;4690;52.422;13.486;2023-10-08T06:43:45;102086.69;;;13.87;94.99
9695;BME280;4690;52.422;13.486;2023-10-08T06:46:39;102094.91;;;14.00;94.98
9695;BME280;4690;52.422;13.486;2023-10-08T06:49:08;102111.41;;;14.20;94.96
9695;BME280;4690;52.422;13.486;2023-10-08T06:51:41;102108.75;;;14.39;95.20
9695;BME280;4690;52.422;13.486;2023-10-08T06:54:09;102120.59;;;14.59;94.84
9695;BME280;4690;52.422;13.486;2023-10-08T06:56:45;102123.06;;;14.74;94.48
9695;BME280;4690;52.422;13.486;2023-10-08T06:59:18;102128.09;;;14.84;94.12
9695;BME280;4690;52.422;13.486;2023-10-08T07:01:44;102122.31;;;14.92;93.70
9695;BME280;4690;52.422;13.486;2023-10-08T07:04:13;102133.78;;;14.95;93.10
9695;BME280;4690;52.422;13.486;2023-10-08T07:06:42;102135.84;;;15.00;92.94
9695;BME280;4690;52.422;13.486;2023-10-08T07:09:11;102130.75;;;15.04;92.59
9695;BME280;4690;52.422;13.486;2023-10-08T07:11:52;102134.28;;;15.11;92.19
9695;BME280;4690;52.422;13.486;2023-10-08T07:14:27;102133.84;;;15.14;90.64
9695;BME280;4690;52.422;13.486;2023-10-08T07:16:57;102137.06;;;15.11;90.52
9695;BME280;4690;52.422;13.486;2023-10-08T07:19:28;102145.34;;;15.11;90.07
9695;BME280;4690;52.422;13.486;2023-10-08T07:22:07;102150.88;;;15.11;89.75
9695;BME280;4690;52.422;13.486;2023-10-08T07:24:43;102161.25;;;15.15;89.35
9695;BME280;4690;52.422;13.486;2023-10-08T07:27:19;102157.19;;;15.18;88.99
9695;BME280;4690;52.422;13.486;2023-10-08T07:29:55;102153.56;;;15.17;88.90
9695;BME280;4690;52.422;13.486;2023-10-08T07:32:21;102169.47;;;15.22;88.86
9695;BME280;4690;52.422;13.486;2023-10-08T07:34:47;102163.97;;;15.22;88.64
9695;BME280;4690;52.422;13.486;2023-10-08T07:37:13;102165.03;;;15.21;88.59
9695;BME280;4690;52.422;13.486;2023-10-08T07:39:41;102175.91;;;15.16;87.78
9695;BME280;4690;52.422;13.486;2023-10-08T07:42:12;102174.88;;;15.10;87.67
9695;BME280;4690;52.422;13.486;2023-10-08T07:44:38;102179.81;;;15.01;87.22
9695;BME280;4690;52.422;13.486;2023-10-08T07:47:06;102176.22;;;14.94;87.26
9695;BME280;4690;52.422;13.486;2023-10-08T07:49:40;102180.06;;;14.93;87.23
9695;BME280;4690;52.422;13.486;2023-10-08T07:52:09;102179.09;;;14.81;83.20
9695;BME280;4690;52.422;13.486;2023-10-08T07:54:41;102191.84;;;14.75;83.94
9695;BME280;4690;52.422;13.486;2023-10-08T07:57:07;102187.78;;;14.78;84.57
9695;BME280;4690;52.422;13.486;2023-10-08T07:59:37;102201.31;;;14.86;84.59
9695;BME280;4690;52.422;13.486;2023-10-08T08:02:08;102196.88;;;14.85;84.56
9695;BME280;4690;52.422;13.486;2023-10-08T08:04:41;102205.34;;;14.90;85.09
9695;BME280;4690;52.422;13.486;2023-10-08T08:07:09;102205.56;;;14.95;84.85
9695;BME280;4690;52.422;13.486;2023-10-08T08:09:54;102212.50;;;15.05;85.56
9695;BME280;4690;52.422;13.486;2023-10-08T08:12:27;102210.31;;;15.13;85.45
9695;BME280;4690;52.422;13.486;2023-10-08T08:14:58;102216.25;;;15.17;84.60
9695;BME280;4690;52.422;13.486;2023-10-08T08:17:24;102220.28;;;15.14;84.52
9695;BME280;4690;52.422;13.486;2023-10-08T08:19:51;102213.66;;;15.22;84.76
9695;BME280;4690;52.422;13.486;2023-10-08T08:22:20;102218.47;;;15.33;85.09
9695;BME280;4690;52.422;13.486;2023-10-08T08:24:50;102230.09;;;15.42;85.23
9695;BME280;4690;52.422;13.486;2023-10-08T08:27:20;102229.00;;;15.50;85.30
9695;BME280;4690;52.422;13.486;2023-10-08T08:29:58;102232.22;;;15.46;84.18
9695;BME280;4690;52.422;13.486;2023-10-08T08:32:36;102231.75;;;15.50;82.89
9695;BME280;4690;52.422;13.486;2023-10-08T08:35:07;102236.03;;;15.45;82.01
9695;BME280;4690;52.422;13.486;2023-10-08T08:37:33;102246.25;;;15.45;80.49
9695;BME280;4690;52.422;13.486;2023-10-08T08:40:02;102248.81;;;15.40;80.31
9695;BME280;4690;52.422;13.486;2023-10-08T08:42:35;102250.72;;;15.39;80.63
9695;BME280;4690;52.422;13.486;2023-10-08T08:45:05;102249.44;;;15.42;81.42
9695;BME280;4690;52.422;13.486;2023-10-08T08:47:36;102245.59;;;15.50;82.05
9695;BME280;4690;52.422;13.486;2023-10-08T08:50:03;102255.91;;;15.61;82.66
9695;BME280;4690;52.422;13.486;2023-10-08T08:52:36;102255.00;;;15.74;83.42
9695;BME280;4690;52.422;13.486;2023-10-08T08:55:04;102260.75;;;15.72;80.85
9695;BME280;4690;52.422;13.486;2023-10-08T08:57:39;102272.88;;;15.64;78.41
9695;BME280;4690;52.422;13.486;2023-10-08T09:00:08;102260.25;;;15.50;78.04
9695;BME280;4690;52.422;13.486;2023-10-08T09:02:37;102261.91;;;15.51;78.70
9695;BME280;4690;52.422;13.486;2023-10-08T09:05:04;102271.72;;;15.47;78.01
9695;BME280;4690;52.422;13.486;2023-10-08T09:08:02;102281.81;;;15.35;78.42
9695;BME280;4690;52.422;13.486;2023-10-08T09:10:35;102276.50;;;15.33;78.60
9695;BME280;4690;52.422;13.486;2023-10-08T09:13:20;102278.63;;;15.31;79.21
9695;BME280;4690;52.422;13.486;2023-10-08T09:15:51;102285.03;;;15.25;79.32
9695;BME280;4690;52.422;13.486;2023-10-08T09:18:17;102284.00;;;15.19;78.92
9695;BME280;4690;52.422;13.486;2023-10-08T09:20:43;102282.75;;;15.15;79.31
9695;BME280;4690;52.422;13.486;2023-10-08T09:23:14;102284.69;;;15.08;79.58
9695;BME280;4690;52.422;13.486;2023-10-08T09:25:44;102289.66;;;14.93;79.01
9695;BME280;4690;52.422;13.486;2023-10-08T09:28:12;102292.25;;;14.81;79.11
9695;BME280;4690;52.422;13.486;2023-10-08T09:30:42;102290.75;;;14.72;79.48
9695;BME280;4690;52.422;13.486;2023-10-08T09:33:12;102291.63;;;14.66;79.20
9695;BME280;4690;52.422;13.486;2023-10-08T09:35:39;102288.66;;;14.67;79.76
9695;BME280;4690;52.422;13.486;2023-10-08T09:38:07;102291.19;;;14.69;80.15
9695;BME280;4690;52.422;13.486;2023-10-08T09:40:40;102288.44;;;14.69;80.86
9695;BME280;4690;52.422;13.486;2023-10-08T09:43:10;102287.78;;;14.67;81.02
9695;BME280;4690;52.422;13.486;2023-10-08T09:45:38;102292.91;;;14.63;81.62
9695;BME280;4690;52.422;13.486;2023-10-08T09:48:11;102294.38;;;14.66;82.31
9695;BME280;4690;52.422;13.486;2023-10-08T09:50:41;102304.78;;;14.64;82.39
9695;BME280;4690;52.422;13.486;2023-10-08T09:53:09;102307.34;;;14.65;82.20
9695;BME280;4690;52.422;13.486;2023-10-08T09:55:56;102310.53;;;14.55;81.95
9695;BME280;4690;52.422;13.486;2023-10-08T09:58:24;102312.22;;;14.43;81.41
9695;BME280;4690;52.422;13.486;2023-10-08T10:00:55;102306.50;;;14.31;77.69
9695;BME280;4690;52.422;13.486;2023-10-08T10:03:25;102315.41;;;14.27;76.45
9695;BME280;4690;52.422;13.486;2023-10-08T10:05:52;102315.22;;;14.28;77.63
9695;BME280;4690;52.422;13.486;2023-10-08T10:08:25;102316.25;;;14.27;78.04
9695;BME280;4690;52.422;13.486;2023-10-08T10:10:59;102315.63;;;14.25;78.68
9695;BME280;4690;52.422;13.486;2023-10-08T10:13:29;102320.50;;;14.30;79.57
9695;BME280;4690;52.422;13.486;2023-10-08T10:15:59;102324.53;;;14.34;80.55
9695;BME280;4690;52.422;13.486;2023-10-08T10:21:44;102322.19;;;14.44;80.57
9695;BME280;4690;52.422;13.486;2023-10-08T10:23:47;102326.66;;;14.45;78.21
9695;BME280;4690;52.422;13.486;2023-10-08T10:26:34;102320.28;;;14.38;72.13
9695;BME280;4690;52.422;13.486;2023-10-08T10:31:52;102320.94;;;14.40;58.93
9695;BME280;4690;52.422;13.486;2023-10-08T10:34:28;102323.03;;;14.51;61.24
9695;BME280;4690;52.422;13.486;2023-10-08T10:36:58;102320.50;;;14.63;65.16
9695;BME280;4690;52.422;13.486;2023-10-08T10:39:26;102322.59;;;14.74;64.47
9695;BME280;4690;52.422;13.486;2023-10-08T10:41:58;102334.25;;;14.83;59.33
9695;BME280;4690;52.422;13.486;2023-10-08T10:44:30;102329.34;;;14.98;60.19
9695;BME280;4690;52.422;13.486;2023-10-08T10:46:58;102332.69;;;15.07;48.78
9695;BME280;4690;52.422;13.486;2023-10-08T10:49:50;102332.91;;;15.12;49.27
9695;BME280;4690;52.422;13.486;2023-10-08T10:52:29;102327.53;;;15.24;51.24
9695;BME280;4690;52.422;13.486;2023-10-08T10:55:05;102335.13;;;15.29;46.50
9695;BME280;4690;52.422;13.486;2023-10-08T10:57:50;102335.31;;;15.40;52.11
9695;BME280;4690;52.422;13.486;2023-10-08T11:00:30;102335.66;;;15.57;51.90
9695;BME280;4690;52.422;13.486;2023-10-08T11:03:00;102343.91;;;15.64;49.90
9695;BME280;4690;52.422;13.486;2023-10-08T11:05:33;102335.38;;;15.72;43.49
9695;BME280;4690;52.422;13.486;2023-10-08T11:08:05;102334.28;;;15.80;47.01
9695;BME280;4690;52.422;13.486;2023-10-08T11:10:39;102325.88;;;15.93;51.78
9695;BME280;4690;52.422;13.486;2023-10-08T11:13:08;102319.50;;;15.93;42.13
9695;BME280;4690;52.422;13.486;2023-10-08T11:15:42;102324.81;;;15.94;41.20
9695;BME280;4690;52.422;13.486;2023-10-08T11:18:10;102324.69;;;16.07;47.48
9695;BME280;4690;52.422;13.486;2023-10-08T11:20:36;102320.38;;;16.18;47.92
9695;BME280;4690;52.422;13.486;2023-10-08T11:23:42;102316.41;;;16.32;51.42
9695;BME280;4690;52.422;13.486;2023-10-08T11:26:08;102312.69;;;16.45;50.55
9695;BME280;4690;52.422;13.486;2023-10-08T11:28:38;102317.63;;;16.62;45.93
9695;BME280;4690;52.422;13.486;2023-10-08T11:31:15;102312.97;;;16.80;42.60
9695;BME280;4690;52.422;13.486;2023-10-08T11:33:46;102316.28;;;16.89;43.35
9695;BME280;4690;52.422;13.486;2023-10-08T11:36:23;102319.00;;;16.96;41.24
9695;BME280;4690;52.422;13.486;2023-10-08T11:38:56;102318.06;;;17.02;39.78
9695;BME280;4690;52.422;13.486;2023-10-08T11:41:28;102322.66;;;17.08;42.52
9695;BME280;4690;52.422;13.486;2023-10-08T11:43:57;102328.25;;;17.20;43.46
9695;BME280;4690;52.422;13.486;2023-10-08T11:46:29;102323.72;;;17.25;41.46
9695;BME280;4690;52.422;13.486;2023-10-08T11:49:08;102321.88;;;17.38;41.30
9695;BME280;4690;52.422;13.486;2023-10-08T11:51:46;102313.72;;;17.43;39.63
9695;BME280;4690;52.422;13.486;2023-10-08T11:54:12;102316.06;;;17.58;41.65
9695;BME280;4690;52.422;13.486;2023-10-08T11:56:39;102325.59;;;17.74;42.72
9695;BME280;4690;52.422;13.486;2023-10-08T11:59:06;102324.59;;;17.86;38.87
9695;BME280;4690;52.422;13.486;2023-10-08T12:01:38;102318.44;;;17.84;36.50
9695;BME280;4690;52.422;13.486;2023-10-08T12:04:09;102323.56;;;17.69;36.39
9695;BME280;4690;52.422;13.486;2023-10-08T12:06:42;102325.16;;;17.77;40.56
9695;BME280;4690;52.422;13.486;2023-10-08T12:09:18;102323.22;;;17.77;36.47
9695;BME280;4690;52.422;13.486;2023-10-08T12:11:50;102321.00;;;17.86;36.94
9695;BME280;4690;52.422;13.486;2023-10-08T12:14:17;102321.25;;;17.96;36.96
9695;BME280;4690;52.422;13.486;2023-10-08T12:16:44;102332.13;;;18.09;39.21
9695;BME280;4690;52.422;13.486;2023-10-08T12:19:11;102319.50;;;18.25;39.56
9695;BME280;4690;52.422;13.486;2023-10-08T12:21:45;102333.59;;;18.35;37.47
9695;BME280;4690;52.422;13.486;2023-10-08T12:24:13;102322.53;;;18.47;39.82
9695;BME280;4690;52.422;13.486;2023-10-08T12:26:41;102328.31;;;18.57;38.95
9695;BME280;4690;52.422;13.486;2023-10-08T12:29:15;102306.44;;;18.61;37.85
9695;BME280;4690;52.422;13.486;2023-10-08T12:31:43;102293.31;;;18.56;36.21
9695;BME280;4690;52.422;13.486;2023-10-08T12:34:16;102299.84;;;18.50;38.35
9695;BME280;4690;52.422;13.486;2023-10-08T12:36:42;102304.66;;;18.55;40.66
9695;BME280;4690;52.422;13.486;2023-10-08T12:39:08;102301.03;;;18.54;40.69
9695;BME280;4690;52.422;13.486;2023-10-08T12:41:42;102312.50;;;18.58;38.65
9695;BME280;4690;52.422;13.486;2023-10-08T12:44:10;102302.00;;;18.60;38.54
9695;BME280;4690;52.422;13.486;2023-10-08T12:46:36;102300.69;;;18.74;42.28
9695;BME280;4690;52.422;13.486;2023-10-08T12:49:02;102295.00;;;18.81;38.17
9695;BME280;4690;52.422;13.486;2023-10-08T12:51:29;102298.63;;;18.81;39.17
9695;BME280;4690;52.422;13.486;2023-10-08T12:53:59;102291.00;;;18.89;41.17
9695;BME280;4690;52.422;13.486;2023-10-08T12:56:34;102298.84;;;18.92;40.71
9695;BME280;4690;52.422;13.486;2023-10-08T12:59:15;102319.38;;;18.91;38.53
9695;BME280;4690;52.422;13.486;2023-10-08T13:01:48;102301.88;;;18.90;38.42
9695;BME280;4690;52.422;13.486;2023-10-08T13:04:20;102288.81;;;18.91;38.15
9695;BME280;4690;52.422;13.486;2023-10-08T13:07:00;102297.50;;;18.94;37.23
9695;BME280;4690;52.422;13.486;2023-10-08T13:09:29;102298.34;;;18.95;38.59
9695;BME280;4690;52.422;13.486;2023-10-08T13:12:02;102290.38;;;18.98;39.47
9695;BME280;4690;52.422;13.486;2023-10-08T13:14:28;102274.91;;;19.02;37.67
9695;BME280;4690;52.422;13.486;2023-10-08T13:16:54;102278.78;;;19.01;37.50
9695;BME280;4690;52.422;13.486;2023-10-08T13:19:20;102273.31;;;19.07;39.58
9695;BME280;4690;52.422;13.486;2023-10-08T13:21:49;102285.97;;;19.14;38.97
9695;BME280;4690;52.422;13.486;2023-10-08T13:24:18;102289.69;;;19.20;38.92
9695;BME280;4690;52.422;13.486;2023-10-08T13:26:44;102281.81;;;19.29;37.87
9695;BME280;4690;52.422;13.486;2023-10-08T13:29:14;102289.69;;;19.32;39.76
9695;BME280;4690;52.422;13.486;2023-10-08T13:31:39;102295.25;;;19.32;40.94
9695;BME280;4690;52.422;13.486;2023-10-08T13:34:05;102293.19;;;19.27;41.47
9695;BME280;4690;52.422;13.486;2023-10-08T13:36:35;102290.19;;;19.17;39.07
9695;BME280;4690;52.422;13.486;2023-10-08T13:39:05;102293.84;;;19.06;39.70
9695;BME280;4690;52.422;13.486;2023-10-08T13:41:36;102294.72;;;18.94;40.50
9695;BME280;4690;52.422;13.486;2023-10-08T13:44:04;102290.66;;;18.85;39.99
9695;BME280;4690;52.422;13.486;2023-10-08T13:46:31;102289.41;;;18.69;38.13
9695;BME280;4690;52.422;13.486;2023-10-08T13:49:02;102296.19;;;18.50;37.89